Huvudsida
METAR-TAF:

METAR-TAF

Flygplatser :

Groznyj, Ryssland

latitud: 43-23-18N, longitud: 045-41-59E, höjd: 167 m

Aktuellt väderrapport

Denna rapport gjordes för 45 minuter sedan, klockan 12:30 UTC
Vind 8 kt från ost/nordost, varierande mellan nord och ost/sydost
Temperatur 32°C
Fuktighet 38%
Tryck 1009 hPa
Sikt 10 km eller mer
Få moln på en höjd av 6000 ft
Spridda moln på en höjd av 7600 ft

METAR: URMG 141230Z 06004MPS 360V110 9999 FEW060 SCT076 32/16 Q1009 R08/090070 NOSIG RMK QFE742/0990

Tid: 16:15 (13:15 UTC)

Väderprognos

Denna rapport gjordes för 2 timmar och 15 minuter sedan, klockan 11:00 UTC
Prognos gäller från 14 kl. 12 UTC till 14 kl. 21 UTC
Vind 6 kt från ost/nordost i byarna ända upp till 16 kt
Sikt 10 km eller mer
Inga moln under 1 500 m eller inga cumulonimbus

TAF: URMG 141100Z 1412/1421 07003G08MPS CAVOK

Aktuella väderrapporter och prognoser från 4000 flygplatser (METAR- och TAF-rapporter).

De tillgängliga stationerna syns som gula och röda prickar på kartan.

För musen över prickarna för att se namnen på stationerna.

Klicka sedan för att få väderrapporter och prognoser.

För att ändra kartan: Klicka på de gröna knapparna med ett svart kors på för att zooma in; den gröna knappen med ett streck på för att zooma ut; eller på de gröna pilarna för angränsande kartor.


METAR-TAF: